Fond-Du-Lac Airport


Codes: CZFD/ZFD
Name: Fond-Du-Lac Airport
City: Fond-Du-Lac
Country: Canada
Elevation: 814 ft.
Wikipedia:

Photos at Fond-Du-Lac Airport


   Photos courtesy of SpottingLog. You can add your own sightings and photos by signing up for a free trial today.



No photos found.

Weather at Fond-Du-Lac Airport


Time (UTC)DescriptionTempratureWindCloud coverageVisibilityPressureHumidity
17-Jun-2024 06:00Broken Clouds3°C11 mph, NW57%10000m1001hPa64%
17-Jun-2024 09:00Scattered Clouds3°C11 mph, W49%10000m1001hPa72%
17-Jun-2024 12:00Broken Clouds3°C11 mph, W62%10000m999hPa76%
17-Jun-2024 15:00Light Snow3°C9 mph, W100%52m998hPa94%
17-Jun-2024 18:00Light Rain3°C7 mph, NW100%30m999hPa98%
17-Jun-2024 21:00Light Rain4°C9 mph, N100%61m1001hPa96%
18-Jun-2024 00:00Light Rain3°C11 mph, N100%36m1003hPa97%
18-Jun-2024 03:00Light Rain4°C9 mph, N100%44m1006hPa97%
18-Jun-2024 06:00Light Rain4°C9 mph, N100%56m1008hPa98%
18-Jun-2024 09:00Light Rain5°C7 mph, NW100%382m1009hPa98%
18-Jun-2024 12:00Light Rain5°C7 mph, NW100%3745m1011hPa97%
18-Jun-2024 15:00Overcast Clouds7°C7 mph, W100%10000m1011hPa82%
18-Jun-2024 18:00Overcast Clouds11°C7 mph, W100%10000m1011hPa60%
18-Jun-2024 21:00Light Rain12°C7 mph, NW100%10000m1012hPa54%
19-Jun-2024 00:00Light Rain13°C7 mph, W100%10000m1012hPa54%
19-Jun-2024 03:00Overcast Clouds10°C7 mph, W100%10000m1012hPa69%
19-Jun-2024 06:00Overcast Clouds7°C4 mph, W100%10000m1013hPa81%
19-Jun-2024 09:00Overcast Clouds7°C4 mph, W100%10000m1013hPa83%
19-Jun-2024 12:00Overcast Clouds8°C4 mph, W100%10000m1013hPa77%
19-Jun-2024 15:00Overcast Clouds12°C7 mph, W100%10000m1013hPa59%
19-Jun-2024 18:00Overcast Clouds17°C9 mph, W100%10000m1012hPa39%
19-Jun-2024 21:00Overcast Clouds19°C9 mph, W100%10000m1012hPa34%
20-Jun-2024 00:00Overcast Clouds20°C7 mph, W98%10000m1012hPa32%
20-Jun-2024 03:00Scattered Clouds15°C4 mph, NW44%10000m1013hPa58%
20-Jun-2024 06:00Scattered Clouds11°C2 mph, S43%10000m1014hPa70%
20-Jun-2024 09:00Broken Clouds10°C2 mph, S71%10000m1015hPa68%
20-Jun-2024 12:00Light Rain12°C4 mph, SW73%10000m1015hPa70%
20-Jun-2024 15:00Light Rain16°C7 mph, W37%10000m1016hPa54%
20-Jun-2024 18:00Broken Clouds20°C9 mph, W59%10000m1016hPa39%
20-Jun-2024 21:00Few Clouds22°C9 mph, W23%10000m1015hPa34%
21-Jun-2024 00:00Few Clouds22°C9 mph, W23%10000m1015hPa32%
21-Jun-2024 03:00Clear Sky18°C4 mph, W10%10000m1015hPa52%
21-Jun-2024 06:00Scattered Clouds14°C4 mph, SE47%10000m1016hPa61%
21-Jun-2024 09:00Overcast Clouds13°C4 mph, SE91%10000m1016hPa64%
21-Jun-2024 12:00Broken Clouds14°C4 mph, S64%10000m1016hPa67%
21-Jun-2024 15:00Few Clouds22°C7 mph, SW22%10000m1015hPa41%
21-Jun-2024 18:00Few Clouds26°C9 mph, SW16%10000m1013hPa28%
21-Jun-2024 21:00Clear Sky27°C9 mph, W8%10000m1012hPa27%
22-Jun-2024 00:00Clear Sky26°C9 mph, W8%10000m1011hPa26%
22-Jun-2024 03:00Clear Sky22°C0 mph, SW2%10000m1010hPa44%